The Deacon — WAK9812 — position and weather

sailwx.info

Track history (hours):
 
Tides and Currents Weather Stations Pressure Air Temp Water Temp Dewpoint Dewpoint Depression Visibility Wind Speed Wind Dir Waves Ship Positions

The Deacon

Owner: G & H Towing Company, GALVESTON, TX. More information available from US FCC via Universal Licensing System and Coast Guard Vessel Documentation Center.

Last reported at 2017-Oct-09 15:07 UTC. Time now 2017-Oct-19 16:23 UTC.
Position N 29°43' W 095°16'.
Warning: this ship's position is 10 days out of date.

Length 27 m; draft 4.2 m.

Type: Tug. MMSI: 366922110.

Date/timePositionNaut miles runAvg speedWind from/ knotsBaromVisibWave heightAir tempDewpointWater temp
2017-Oct-09 15:07N 29°43' W 095°16'0 0.0
2017-Oct-09 15:00N 29°43' W 095°16'4 6.2
2017-Oct-09 14:23N 29°44' W 095°12'3 7.1
2017-Oct-09 14:00N 29°44' W 095°09'2 3.9
2017-Oct-09 13:29N 29°44' W 095°07'0 0.0
2017-Oct-09 12:57N 29°44' W 095°07'0 0.0
2017-Oct-09 03:22N 29°44' W 095°07'2 6.8
2017-Oct-09 03:00N 29°44' W 095°09'3 7.1
2017-Oct-09 02:30N 29°43' W 095°13'0 0.6
2017-Oct-09 02:00N 29°43' W 095°13'0 0.1
2017-Oct-09 01:17N 29°44' W 095°13'0 0.3
2017-Oct-09 00:57N 29°44' W 095°13'3 6.6
2017-Oct-09 00:29N 29°44' W 095°09'1 0.1
2017-Oct-08 15:05N 29°44' W 095°08'0 3.2
2017-Oct-08 14:58N 29°44' W 095°09'0 0.1
2017-Oct-08 14:30N 29°44' W 095°09'0 0.3
2017-Oct-08 13:59N 29°44' W 095°08'1 1.2
2017-Oct-08 13:01N 29°44' W 095°07'0 0.5
2017-Oct-08 12:08N 29°44' W 095°07'1 2.7
2017-Oct-08 11:55N 29°44' W 095°07'0 0.1
2017-Oct-08 10:38N 29°44' W 095°07'1 3.6
2017-Oct-08 10:27N 29°45' W 095°06'0 0.1
2017-Oct-08 09:36N 29°45' W 095°06'1 5.5
2017-Oct-08 09:28N 29°44' W 095°07'0 0.0
2017-Oct-08 08:56N 29°44' W 095°07'0 0.0
2017-Oct-08 08:29N 29°44' W 095°07'0 0.0
2017-Oct-08 07:50N 29°44' W 095°07'0 0.0
2017-Oct-08 04:35N 29°44' W 095°07'0 0.6
2017-Oct-08 04:30N 29°44' W 095°07'1 0.1
2017-Oct-07 22:33N 29°44' W 095°08'0 0.1
2017-Oct-07 22:29N 29°44' W 095°08'0 0.2
2017-Oct-07 21:52N 29°44' W 095°08'0 0.0
2017-Oct-07 17:49N 29°44' W 095°08'0 0.0
2017-Oct-07 17:22N 29°44' W 095°08'2 1.5
2017-Oct-07 16:20N 29°44' W 095°09'0 0.9
2017-Oct-07 15:52N 29°44' W 095°09'1 2.7
2017-Oct-07 15:19N 29°45' W 095°10'0 0.0
2017-Oct-07 14:55N 29°45' W 095°10'2 2.2
2017-Oct-07 14:13N 29°44' W 095°12'0 0.7
2017-Oct-07 13:46N 29°44' W 095°12'0 0.3
2017-Oct-07 13:30N 29°44' W 095°12'4 7.0
2017-Oct-07 13:00N 29°44' W 095°08'1 0.7
2017-Oct-07 11:07N 29°44' W 095°07'1 4.9
2017-Oct-07 10:53N 29°45' W 095°06'0 1.1
2017-Oct-07 10:30N 29°45' W 095°06'1 0.6
2017-Oct-07 09:27N 29°45' W 095°07'3 5.7
2017-Oct-07 08:59N 29°45' W 095°10'0 0.2
2017-Oct-07 08:22N 29°45' W 095°10'0 1.0
2017-Oct-07 08:00N 29°44' W 095°09'1 2.9
2017-Oct-07 07:30N 29°44' W 095°08'1 0.1
2017-Oct-07 03:29N 29°44' W 095°07'0 0.0
2017-Oct-07 02:47N 29°44' W 095°07'1 1.6
2017-Oct-07 02:07N 29°45' W 095°06'2 3.7
2017-Oct-07 01:37N 29°44' W 095°08'2 1.2
2017-Oct-06 23:55N 29°45' W 095°10'3 0.2
2017-Oct-06 08:06N 29°45' W 095°07'2 6.7
2017-Oct-06 07:52N 29°46' W 095°05'3 7.3
2017-Oct-06 07:31N 29°44' W 095°03'0 0.2
2017-Oct-06 06:46N 29°44' W 095°03'2 6.9
2017-Oct-06 06:27N 29°43' W 095°01'0 0.7
2017-Oct-06 06:00N 29°42' W 095°01'0 0.0
2017-Oct-06 05:30N 29°42' W 095°01'2 3.0
2017-Oct-06 05:00N 29°44' W 095°01'0 0.0
2017-Oct-06 04:26N 29°44' W 095°01'5 2.9
2017-Oct-06 02:48N 29°44' W 095°07'0 0.0
2017-Oct-05 12:07N 29°45' W 095°06'0 1.4
2017-Oct-05 11:49N 29°44' W 095°07'1 0.2
2017-Oct-05 05:22N 29°45' W 095°06'3 0.6
2017-Oct-04 23:58N 29°44' W 095°09'3 6.8
2017-Oct-04 23:30N 29°43' W 095°13'1 1.0
2017-Oct-04 22:45N 29°44' W 095°14'2 0.6
2017-Oct-04 19:51N 29°44' W 095°12'3 3.3
2017-Oct-04 18:48N 29°44' W 095°16'1 1.6
2017-Oct-04 18:28N 29°44' W 095°16'3 4.6
2017-Oct-04 17:55N 29°44' W 095°14'3 5.2
2017-Oct-04 17:19N 29°45' W 095°10'1 1.3
2017-Oct-04 16:25N 29°44' W 095°09'4 0.8
2017-Oct-04 11:18N 29°43' W 095°14'0 0.0
2017-Oct-04 10:54N 29°43' W 095°14'1 2.9
2017-Oct-04 10:27N 29°44' W 095°12'0 0.0
2017-Oct-04 10:00N 29°44' W 095°12'0 0.0
2017-Oct-04 09:30N 29°44' W 095°12'0 0.0
2017-Oct-04 09:00N 29°44' W 095°12'0 0.0
2017-Oct-04 08:26N 29°44' W 095°12'0 0.1
2017-Oct-04 07:44N 29°44' W 095°12'1 5.3
2017-Oct-04 07:30N 29°43' W 095°13'1 1.8
2017-Oct-04 06:46N 29°43' W 095°15'0 0.1
2017-Oct-04 06:30N 29°43' W 095°15'0 0.0
2017-Oct-04 06:00N 29°43' W 095°15'1 2.5
2017-Oct-04 05:24N 29°44' W 095°13'0 0.0
2017-Oct-04 04:50N 29°44' W 095°13'0 0.0
2017-Oct-04 04:28N 29°44' W 095°13'1 2.4
2017-Oct-04 04:00N 29°43' W 095°14'2 1.0
2017-Oct-04 01:55N 29°44' W 095°12'0 0.0
2017-Oct-04 01:29N 29°44' W 095°12'0 0.1
2017-Oct-03 23:29N 29°44' W 095°12'3 1.8
2017-Oct-03 21:45N 29°44' W 095°16'0 1.0
2017-Oct-03 21:25N 29°44' W 095°16'0 0.0
2017-Oct-03 20:54N 29°44' W 095°16'0 0.0
2017-Oct-03 20:28N 29°44' W 095°16'0 0.0
2017-Oct-03 19:58N 29°44' W 095°16'0 0.5
2017-Oct-03 19:25N 29°44' W 095°17'1 2.7
2017-Oct-03 19:00N 29°44' W 095°15'1 1.3
2017-Oct-03 18:24N 29°44' W 095°16'0 0.1
2017-Oct-03 18:00N 29°44' W 095°16'2 1.9
2017-Oct-03 16:42N 29°44' W 095°13'0 0.8
2017-Oct-03 16:28N 29°44' W 095°13'3 4.4
2017-Oct-03 15:45N 29°44' W 095°17'0 0.0
2017-Oct-03 12:18N 29°44' W 095°17'0 0.0
2017-Oct-03 11:57N 29°44' W 095°17'0 0.0
2017-Oct-03 11:30N 29°44' W 095°17'0 0.0
2017-Oct-03 11:00N 29°44' W 095°17'0 0.0
2017-Oct-03 10:30N 29°44' W 095°17'0 0.0
2017-Oct-03 10:00N 29°44' W 095°17'0 0.0
2017-Oct-03 09:30N 29°44' W 095°17'0 0.0
2017-Oct-03 09:00N 29°44' W 095°17'0 0.8
2017-Oct-03 08:31N 29°45' W 095°17'1 1.2
2017-Oct-03 07:58N 29°44' W 095°17'1 2.0
2017-Oct-03 07:30N 29°44' W 095°16'0 0.0
2017-Oct-03 07:00N 29°44' W 095°16'0 0.3
2017-Oct-03 06:22N 29°44' W 095°16'1 1.7
2017-Oct-03 06:00N 29°44' W 095°17'1 1.3
2017-Oct-03 05:30N 29°44' W 095°16'0 0.8
2017-Oct-03 04:56N 29°44' W 095°16'0 0.0
2017-Oct-03 04:23N 29°44' W 095°16'0 0.0
2017-Oct-03 03:59N 29°44' W 095°16'0 0.0
2017-Oct-03 03:20N 29°44' W 095°16'0 0.0
2017-Oct-03 02:53N 29°44' W 095°16'0 0.0
2017-Oct-03 02:29N 29°44' W 095°16'3 4.5
2017-Oct-03 01:55N 29°44' W 095°13'2 1.3
2017-Oct-03 00:08N 29°44' W 095°16'0 0.4
2017-Oct-02 23:46N 29°43' W 095°16'0 0.4
2017-Oct-02 23:16N 29°44' W 095°16'0 0.5
2017-Oct-02 22:59N 29°44' W 095°16'0 0.0
2017-Oct-02 22:26N 29°44' W 095°16'0 0.0
2017-Oct-02 21:59N 29°44' W 095°16'0 0.0
2017-Oct-02 21:23N 29°44' W 095°16'0 0.0
2017-Oct-02 20:59N 29°44' W 095°16'1 1.5
2017-Oct-02 20:30N 29°44' W 095°15'5 7.4
2017-Oct-02 19:54N 29°45' W 095°10'2 1.8
2017-Oct-02 19:01N 29°44' W 095°09'0 0.0
2017-Oct-02 18:52N 29°44' W 095°09'2 0.3
2017-Oct-02 10:58N 29°45' W 095°11'0 0.0
2017-Oct-02 10:24N 29°45' W 095°11'1 2.2
2017-Oct-02 10:00N 29°44' W 095°12'2 2.9
2017-Oct-02 09:27N 29°45' W 095°10'0 0.1
2017-Oct-02 07:12N 29°45' W 095°11'1 5.5
2017-Oct-02 07:00N 29°45' W 095°12'0 0.3
2017-Oct-02 06:19N 29°44' W 095°12'0 0.1
2017-Oct-02 05:57N 29°44' W 095°12'3 6.3
2017-Oct-02 05:30N 29°44' W 095°09'1 0.2
2017-Oct-01 22:06N 29°44' W 095°07'1 3.5
2017-Oct-01 21:57N 29°44' W 095°07'1 0.2
2017-Oct-01 18:12N 29°44' W 095°07'2 0.5
2017-Oct-01 14:27N 29°45' W 095°06'1 0.3
2017-Oct-01 09:38N 29°44' W 095°07'0 0.0
2017-Oct-01 09:20N 29°44' W 095°07'0 0.0
2017-Oct-01 08:56N 29°44' W 095°07'0 0.0
2017-Oct-01 08:20N 29°44' W 095°07'0 0.0
2017-Oct-01 06:32N 29°44' W 095°07'0 0.0
2017-Oct-01 06:20N 29°44' W 095°07'0 0.0
2017-Oct-01 05:56N 29°44' W 095°07'0 0.0
2017-Oct-01 05:29N 29°44' W 095°07'0 0.0
2017-Oct-01 04:56N 29°44' W 095°07'0 0.0
2017-Oct-01 03:53N 29°44' W 095°07'0 0.0
2017-Oct-01 03:29N 29°44' W 095°07'0 0.0
2017-Oct-01 02:56N 29°44' W 095°07'  
Track history (hours):
 
Tides and Currents Weather Stations Pressure Air Temp Water Temp Dewpoint Dewpoint Depression Visibility Wind Speed Wind Dir Waves Ship Positions

The Deacon

Owner: G & H Towing Company, GALVESTON, TX. More information available from US FCC via Universal Licensing System and Coast Guard Vessel Documentation Center.

Last reported at 2017-Oct-09 15:07 UTC. Time now 2017-Oct-19 16:23 UTC.
Position N 29°43' W 095°16'.
Warning: this ship's position is 10 days out of date.

Length 27 m; draft 4.2 m.

Type: Tug. MMSI: 366922110.

Date/timePositionNaut miles runAvg speedWind from/ knotsBaromVisibWave heightAir tempDewpointWater temp
2017-Oct-09 15:07N 29°43' W 095°16'0 0.0
2017-Oct-09 15:00N 29°43' W 095°16'4 6.2
2017-Oct-09 14:23N 29°44' W 095°12'3 7.1
2017-Oct-09 14:00N 29°44' W 095°09'2 3.9
2017-Oct-09 13:29N 29°44' W 095°07'0 0.0
2017-Oct-09 12:57N 29°44' W 095°07'0 0.0
2017-Oct-09 03:22N 29°44' W 095°07'2 6.8
2017-Oct-09 03:00N 29°44' W 095°09'3 7.1
2017-Oct-09 02:30N 29°43' W 095°13'0 0.6
2017-Oct-09 02:00N 29°43' W 095°13'0 0.1
2017-Oct-09 01:17N 29°44' W 095°13'0 0.3
2017-Oct-09 00:57N 29°44' W 095°13'3 6.6
2017-Oct-09 00:29N 29°44' W 095°09'1 0.1
2017-Oct-08 15:05N 29°44' W 095°08'0 3.2
2017-Oct-08 14:58N 29°44' W 095°09'0 0.1
2017-Oct-08 14:30N 29°44' W 095°09'0 0.3
2017-Oct-08 13:59N 29°44' W 095°08'1 1.2
2017-Oct-08 13:01N 29°44' W 095°07'0 0.5
2017-Oct-08 12:08N 29°44' W 095°07'1 2.7
2017-Oct-08 11:55N 29°44' W 095°07'0 0.1
2017-Oct-08 10:38N 29°44' W 095°07'1 3.6
2017-Oct-08 10:27N 29°45' W 095°06'0 0.1
2017-Oct-08 09:36N 29°45' W 095°06'1 5.5
2017-Oct-08 09:28N 29°44' W 095°07'0 0.0
2017-Oct-08 08:56N 29°44' W 095°07'0 0.0
2017-Oct-08 08:29N 29°44' W 095°07'0 0.0
2017-Oct-08 07:50N 29°44' W 095°07'0 0.0
2017-Oct-08 04:35N 29°44' W 095°07'0 0.6
2017-Oct-08 04:30N 29°44' W 095°07'1 0.1
2017-Oct-07 22:33N 29°44' W 095°08'0 0.1
2017-Oct-07 22:29N 29°44' W 095°08'0 0.2
2017-Oct-07 21:52N 29°44' W 095°08'0 0.0
2017-Oct-07 17:49N 29°44' W 095°08'0 0.0
2017-Oct-07 17:22N 29°44' W 095°08'2 1.5
2017-Oct-07 16:20N 29°44' W 095°09'0 0.9
2017-Oct-07 15:52N 29°44' W 095°09'1 2.7
2017-Oct-07 15:19N 29°45' W 095°10'0 0.0
2017-Oct-07 14:55N 29°45' W 095°10'2 2.2
2017-Oct-07 14:13N 29°44' W 095°12'0 0.7
2017-Oct-07 13:46N 29°44' W 095°12'0 0.3
2017-Oct-07 13:30N 29°44' W 095°12'4 7.0
2017-Oct-07 13:00N 29°44' W 095°08'1 0.7
2017-Oct-07 11:07N 29°44' W 095°07'1 4.9
2017-Oct-07 10:53N 29°45' W 095°06'0 1.1
2017-Oct-07 10:30N 29°45' W 095°06'1 0.6
2017-Oct-07 09:27N 29°45' W 095°07'3 5.7
2017-Oct-07 08:59N 29°45' W 095°10'0 0.2
2017-Oct-07 08:22N 29°45' W 095°10'0 1.0
2017-Oct-07 08:00N 29°44' W 095°09'1 2.9
2017-Oct-07 07:30N 29°44' W 095°08'1 0.1
2017-Oct-07 03:29N 29°44' W 095°07'0 0.0
2017-Oct-07 02:47N 29°44' W 095°07'1 1.6
2017-Oct-07 02:07N 29°45' W 095°06'2 3.7
2017-Oct-07 01:37N 29°44' W 095°08'2 1.2
2017-Oct-06 23:55N 29°45' W 095°10'3 0.2
2017-Oct-06 08:06N 29°45' W 095°07'2 6.7
2017-Oct-06 07:52N 29°46' W 095°05'3 7.3
2017-Oct-06 07:31N 29°44' W 095°03'0 0.2
2017-Oct-06 06:46N 29°44' W 095°03'2 6.9
2017-Oct-06 06:27N 29°43' W 095°01'0 0.7
2017-Oct-06 06:00N 29°42' W 095°01'0 0.0
2017-Oct-06 05:30N 29°42' W 095°01'2 3.0
2017-Oct-06 05:00N 29°44' W 095°01'0 0.0
2017-Oct-06 04:26N 29°44' W 095°01'5 2.9
2017-Oct-06 02:48N 29°44' W 095°07'0 0.0
2017-Oct-05 12:07N 29°45' W 095°06'0 1.4
2017-Oct-05 11:49N 29°44' W 095°07'1 0.2
2017-Oct-05 05:22N 29°45' W 095°06'3 0.6
2017-Oct-04 23:58N 29°44' W 095°09'3 6.8
2017-Oct-04 23:30N 29°43' W 095°13'1 1.0
2017-Oct-04 22:45N 29°44' W 095°14'2 0.6
2017-Oct-04 19:51N 29°44' W 095°12'3 3.3
2017-Oct-04 18:48N 29°44' W 095°16'1 1.6
2017-Oct-04 18:28N 29°44' W 095°16'3 4.6
2017-Oct-04 17:55N 29°44' W 095°14'3 5.2
2017-Oct-04 17:19N 29°45' W 095°10'1 1.3
2017-Oct-04 16:25N 29°44' W 095°09'4 0.8
2017-Oct-04 11:18N 29°43' W 095°14'0 0.0
2017-Oct-04 10:54N 29°43' W 095°14'1 2.9
2017-Oct-04 10:27N 29°44' W 095°12'0 0.0
2017-Oct-04 10:00N 29°44' W 095°12'0 0.0
2017-Oct-04 09:30N 29°44' W 095°12'0 0.0
2017-Oct-04 09:00N 29°44' W 095°12'0 0.0
2017-Oct-04 08:26N 29°44' W 095°12'0 0.1
2017-Oct-04 07:44N 29°44' W 095°12'1 5.3
2017-Oct-04 07:30N 29°43' W 095°13'1 1.8
2017-Oct-04 06:46N 29°43' W 095°15'0 0.1
2017-Oct-04 06:30N 29°43' W 095°15'0 0.0
2017-Oct-04 06:00N 29°43' W 095°15'1 2.5
2017-Oct-04 05:24N 29°44' W 095°13'0 0.0
2017-Oct-04 04:50N 29°44' W 095°13'0 0.0
2017-Oct-04 04:28N 29°44' W 095°13'1 2.4
2017-Oct-04 04:00N 29°43' W 095°14'2 1.0
2017-Oct-04 01:55N 29°44' W 095°12'0 0.0
2017-Oct-04 01:29N 29°44' W 095°12'0 0.1
2017-Oct-03 23:29N 29°44' W 095°12'3 1.8
2017-Oct-03 21:45N 29°44' W 095°16'0 1.0
2017-Oct-03 21:25N 29°44' W 095°16'0 0.0
2017-Oct-03 20:54N 29°44' W 095°16'0 0.0
2017-Oct-03 20:28N 29°44' W 095°16'0 0.0
2017-Oct-03 19:58N 29°44' W 095°16'0 0.5
2017-Oct-03 19:25N 29°44' W 095°17'1 2.7
2017-Oct-03 19:00N 29°44' W 095°15'1 1.3
2017-Oct-03 18:24N 29°44' W 095°16'0 0.1
2017-Oct-03 18:00N 29°44' W 095°16'2 1.9
2017-Oct-03 16:42N 29°44' W 095°13'0 0.8
2017-Oct-03 16:28N 29°44' W 095°13'3 4.4
2017-Oct-03 15:45N 29°44' W 095°17'0 0.0
2017-Oct-03 12:18N 29°44' W 095°17'0 0.0
2017-Oct-03 11:57N 29°44' W 095°17'0 0.0
2017-Oct-03 11:30N 29°44' W 095°17'0 0.0
2017-Oct-03 11:00N 29°44' W 095°17'0 0.0
2017-Oct-03 10:30N 29°44' W 095°17'0 0.0
2017-Oct-03 10:00N 29°44' W 095°17'0 0.0
2017-Oct-03 09:30N 29°44' W 095°17'0 0.0
2017-Oct-03 09:00N 29°44' W 095°17'0 0.8
2017-Oct-03 08:31N 29°45' W 095°17'1 1.2
2017-Oct-03 07:58N 29°44' W 095°17'1 2.0
2017-Oct-03 07:30N 29°44' W 095°16'0 0.0
2017-Oct-03 07:00N 29°44' W 095°16'0 0.3
2017-Oct-03 06:22N 29°44' W 095°16'1 1.7
2017-Oct-03 06:00N 29°44' W 095°17'1 1.3
2017-Oct-03 05:30N 29°44' W 095°16'0 0.8
2017-Oct-03 04:56N 29°44' W 095°16'0 0.0
2017-Oct-03 04:23N 29°44' W 095°16'0 0.0
2017-Oct-03 03:59N 29°44' W 095°16'0 0.0
2017-Oct-03 03:20N 29°44' W 095°16'0 0.0
2017-Oct-03 02:53N 29°44' W 095°16'0 0.0
2017-Oct-03 02:29N 29°44' W 095°16'3 4.5
2017-Oct-03 01:55N 29°44' W 095°13'2 1.3
2017-Oct-03 00:08N 29°44' W 095°16'0 0.4
2017-Oct-02 23:46N 29°43' W 095°16'0 0.4
2017-Oct-02 23:16N 29°44' W 095°16'0 0.5
2017-Oct-02 22:59N 29°44' W 095°16'0 0.0
2017-Oct-02 22:26N 29°44' W 095°16'0 0.0
2017-Oct-02 21:59N 29°44' W 095°16'0 0.0
2017-Oct-02 21:23N 29°44' W 095°16'0 0.0
2017-Oct-02 20:59N 29°44' W 095°16'1 1.5
2017-Oct-02 20:30N 29°44' W 095°15'5 7.4
2017-Oct-02 19:54N 29°45' W 095°10'2 1.8
2017-Oct-02 19:01N 29°44' W 095°09'0 0.0
2017-Oct-02 18:52N 29°44' W 095°09'2 0.3
2017-Oct-02 10:58N 29°45' W 095°11'0 0.0
2017-Oct-02 10:24N 29°45' W 095°11'1 2.2
2017-Oct-02 10:00N 29°44' W 095°12'2 2.9
2017-Oct-02 09:27N 29°45' W 095°10'0 0.1
2017-Oct-02 07:12N 29°45' W 095°11'1 5.5
2017-Oct-02 07:00N 29°45' W 095°12'0 0.3
2017-Oct-02 06:19N 29°44' W 095°12'0 0.1
2017-Oct-02 05:57N 29°44' W 095°12'3 6.3
2017-Oct-02 05:30N 29°44' W 095°09'1 0.2
2017-Oct-01 22:06N 29°44' W 095°07'1 3.5
2017-Oct-01 21:57N 29°44' W 095°07'1 0.2
2017-Oct-01 18:12N 29°44' W 095°07'2 0.5
2017-Oct-01 14:27N 29°45' W 095°06'1 0.3
2017-Oct-01 09:38N 29°44' W 095°07'0 0.0
2017-Oct-01 09:20N 29°44' W 095°07'0 0.0
2017-Oct-01 08:56N 29°44' W 095°07'0 0.0
2017-Oct-01 08:20N 29°44' W 095°07'0 0.0
2017-Oct-01 06:32N 29°44' W 095°07'0 0.0
2017-Oct-01 06:20N 29°44' W 095°07'0 0.0
2017-Oct-01 05:56N 29°44' W 095°07'0 0.0
2017-Oct-01 05:29N 29°44' W 095°07'0 0.0
2017-Oct-01 04:56N 29°44' W 095°07'0 0.0
2017-Oct-01 03:53N 29°44' W 095°07'0 0.0
2017-Oct-01 03:29N 29°44' W 095°07'0 0.0
2017-Oct-01 02:56N 29°44' W 095°07'  

Dump ship's entire track history